• Join FlightAware (Why Join?)
  • Login
  • US Flag 
02:35PM EDT


 

Airport Tracker/Info


-or-


 

Live Flight TrackerFlight Track Log ✈ SKW7363 ✈ 17-Jan-2014 ✈ KSLC - KTWF

Flight Track Log - Related Links

Times and Time Zones

All times are in EST time to prevent confusion due to time zone crossing. See the SKW7363 flight status page for this flight to view local times or setup timezone preferences in your user account.

Time Position Orientation Groundspeed Altitude Reporting Facility
EST Latitude Longitude Course Direction KTS MPH feet Rate Location/Type
10:27PM 40.8003 -112.0014 314° West 146 168 5,000  Level Salt Lake Center
10:27PM 40.7997 -111.9981 102° East 132 152 4,900 1,320 Descending Salt Lake Center
10:28PM 40.8336 -112.0411 316° Northwest 198 228 6,400 1,320 Climbing Salt Lake Center
10:28PM 40.8339 -112.0353 86° East 179 206 6,300 1,680 Descending Salt Lake Center
10:29PM 40.8514 -112.1086 288° West 199 229 8,100 1,740 Climbing Salt Lake Center
10:29PM 40.8508 -112.1061 106° East 200 230 8,100 1,560 Level Salt Lake Center
10:30PM 40.8867 -112.1583 312° West 203 234 9,900 1,920 Climbing Salt Lake Center
10:31PM 40.9389 -112.2072 325° Northwest 192 221 12,100 1,680 Climbing Salt Lake Center
10:32PM 41.0003 -112.2805 314° West  Level Estimated
10:32PM 40.9847 -112.2483 326° Northwest 198 228 13,400  Level Salt Lake Center
10:34PM 41.0328 -112.2906 326° Northwest 211 243 14,000 240 Climbing Salt Lake Center
10:35PM 41.0889 -112.3389 327° Northwest 242 278 14,000  Level Salt Lake Center
10:36PM 41.1375 -112.4006 316° Northwest 244 281 14,000  Level Salt Lake Center
10:37PM 41.1769 -112.4683 308° West 233 268 14,000  Level Salt Lake Center
10:38PM 41.2172 -112.5306 311° West 223 257 14,000  Level Salt Lake Center
10:39PM 41.2581 -112.5914 312° West 221 254 14,000 480 Level Salt Lake Center
10:40PM 41.3058 -112.6631 312° West 216 249 15,100 900 Climbing Salt Lake Center
10:41PM 41.3453 -112.7214 312° West 212 244 15,900 720 Climbing Salt Lake Center
10:42PM 41.3836 -112.7817 310° West 213 245 16,600 660 Climbing Salt Lake Center
10:43PM 41.4233 -112.8400 312° West 215 247 17,300 660 Climbing Salt Lake Center
10:44PM 41.4617 -112.9000 310° West 212 244 18,000 480 Climbing Salt Lake Center
10:45PM 41.5003 -112.9603 311° West 213 245 18,300 420 Climbing Salt Lake Center
10:46PM 41.5383 -113.0208 310° West 213 245 18,900 660 Climbing Salt Lake Center
10:47PM 41.5864 -113.0919 312° West 214 246 19,700 600 Climbing Salt Lake Center
10:48PM 41.6267 -113.1525 312° West 218 251 20,200 480 Climbing Salt Lake Center
10:49PM 41.6661 -113.2139 311° West 218 251 20,700 540 Climbing Salt Lake Center
10:50PM 41.7069 -113.2756 312° West 220 253 21,400 540 Climbing Salt Lake Center
10:51PM 41.7464 -113.3364 311° West 217 250 21,900 240 Climbing Salt Lake Center
10:52PM 41.7881 -113.3986 312° West 221 254 22,000  Climbing Salt Lake Center
10:53PM 41.8306 -113.4647 311° West 230 265 22,000  Level Salt Lake Center
10:54PM 41.8736 -113.5294 312° West 233 268 22,000  Level Salt Lake Center
10:55PM 41.9236 -113.6103 310° West 234 269 22,000  Level Salt Lake Center
10:56PM 41.9664 -113.6747 312° West 233 268 22,000  Level Salt Lake Center
10:57PM 42.0081 -113.7417 310° West 233 268 22,000  Level Salt Lake Center
10:58PM 42.0494 -113.8064 311° West 229 264 22,000 -660 Level Salt Lake Center
10:59PM 42.0914 -113.8719 311° West 231 266 20,700 -1,740 Descending Salt Lake Center
11:00PM 42.1300 -113.9342 310° West 223 257 18,500 -1,860 Descending Salt Lake Center
11:01PM 42.1706 -113.9958 312° West 221 254 17,000 -1,740 Descending Salt Lake Center
11:02PM 42.2075 -114.0547 310° West 213 245 15,000 -1,980 Descending Salt Lake Center
11:03PM 42.2494 -114.1222 310° West 202 232 13,000 -1,860 Descending Salt Lake Center
11:04PM 42.2903 -114.1747 316° Northwest 197 227 11,200 -1,620 Descending Salt Lake Center
11:05PM 42.3400 -114.2167 328° Northwest 208 239 9,800 -1,380 Descending Salt Lake Center
11:06PM 42.3861 -114.2617 324° Northwest 199 229 8,400 -1,320 Descending Salt Lake Center
11:07PM 42.4275 -114.3022 324° Northwest 194 223 7,200 -1,200 Descending Salt Lake Center